^^
Station Historical Data
Daily Summary for February 14, 2018 Units:  Metric    English   Both
« Previous Day
Next Day »
Daily Weekly Monthly Yearly Custom
  High: Low: Average:
Temperature: -17.8 °C 7.1 °C 11.3 °C
Dew Point: -17.8 °C 6.2 °C 10.4 °C
Humidity: Humidity% 86% 94%
Wind Speed: 0km/h 0km/h 0km/h
Wind Gust: 0km/h - -
Wind- - North
Pressure: 0 hPa 1027 hPa -
Precipitation: 2.79 mm    
Historical Graphs
 
 
Tabular Data for February 14, 2018
Time Temperature Dew Point Pressure Wind Wind Speed Wind Gust Humidity Rainfall Rate (Hourly)
-17.8 °C -17.8 °C 0 hPa Calm     Humidity% 0 mm
00:05 8.3 °C 7.2 °C 1034.8 hPa Calm     93% 0 mm
00:11 8.2 °C 7.1 °C 1034.8 hPa Calm     93% 0 mm
00:16 8.1 °C 7 °C 1034.8 hPa Calm     93% 0 mm
00:21 8 °C 6.9 °C 1034.8 hPa Calm     93% 0 mm
00:26 7.9 °C 6.8 °C 1034.8 hPa Calm     93% 0 mm
00:31 7.8 °C 6.7 °C 1034.4 hPa Calm     93% 0 mm
00:36 7.7 °C 6.6 °C 1034.8 hPa Calm     93% 0 mm
00:41 7.6 °C 6.7 °C 1034.8 hPa Calm     94% 0 mm
00:47 7.5 °C 6.6 °C 1034.8 hPa Calm     94% 0 mm
00:52 7.4 °C 6.5 °C 1034.8 hPa Calm     94% 0 mm
00:58 7.3 °C 6.4 °C 1034.8 hPa Calm     94% 0 mm
01:03 7.2 °C 6.3 °C 1034.8 hPa Calm     94% 0 mm
01:08 7.2 °C 6.3 °C 1034.8 hPa Calm     94% 0 mm
01:13 7.1 °C 6.2 °C 1034.8 hPa Calm     94% 0 mm
01:18 7.1 °C 6.2 °C 1034.8 hPa Calm     94% 0 mm
01:24 7.1 °C 6.4 °C 1034.8 hPa Calm     95% 0 mm
01:29 7.2 °C 6.5 °C 1034.8 hPa Calm     95% 0 mm
01:34 7.2 °C 6.5 °C 1034.8 hPa Calm     95% 0 mm
01:39 7.3 °C 6.6 °C 1034.8 hPa Calm     95% 0 mm
01:44 7.3 °C 6.6 °C 1034.8 hPa Calm     95% 0 mm
01:49 7.4 °C 6.7 °C 1034.8 hPa Calm     95% 0 mm
01:54 7.4 °C 6.7 °C 1034.8 hPa Calm     95% 0 mm
01:59 7.5 °C 6.8 °C 1034.8 hPa Calm     95% 0 mm
02:05 7.6 °C 6.9 °C 1034.4 hPa Calm     95% 0 mm
02:10 7.6 °C 6.9 °C 1034.4 hPa Calm     95% 0 mm
02:16 7.7 °C 6.9 °C 1034.4 hPa Calm     95% 0 mm
02:21 7.7 °C 6.9 °C 1034.4 hPa Calm     95% 0 mm
02:27 7.7 °C 7.1 °C 1034.1 hPa Calm     96% 0 mm
02:32 7.8 °C 7.2 °C 1034.4 hPa Calm     96% 0 mm
02:37 7.8 °C 7.2 °C 1034.4 hPa Calm     96% 0 mm
02:42 7.8 °C 7 °C 1034.4 hPa Calm     95% 0 mm
02:48 7.8 °C 7 °C 1034.4 hPa Calm     95% 0 mm
02:54 7.9 °C 7.3 °C 1034.1 hPa Calm     96% 0 mm
02:59 7.9 °C 7.1 °C 1034.4 hPa Calm     95% 0 mm
03:04 7.9 °C 7.1 °C 1034.1 hPa Calm     95% 0 mm
03:10 8 °C 7.2 °C 1033.7 hPa Calm     95% 0 mm
03:16 8 °C 7.2 °C 1033.7 hPa Calm     95% 0 mm
03:21 7.9 °C 7.1 °C 1033.4 hPa Calm     95% 0 mm
03:26 7.9 °C 7.1 °C 1033.4 hPa Calm     95% 0 mm
03:31 7.8 °C 7 °C 1033.4 hPa Calm     95% 0 mm
03:37 7.8 °C 7 °C 1033.4 hPa Calm     95% 0 mm
03:43 7.8 °C 7 °C 1033.7 hPa Calm     95% 0 mm
03:48 7.8 °C 7.2 °C 1033.4 hPa Calm     96% 0 mm
03:53 7.8 °C 7.2 °C 1033.4 hPa Calm     96% 0 mm
03:58 7.8 °C 7.2 °C 1033.1 hPa Calm     96% 0 mm
04:02 7.8 °C 7 °C 1033.1 hPa Calm     95% 0 mm
04:03 7.8 °C 7 °C 1033.1 hPa Calm     95% 0 mm
04:09 7.7 °C 7.1 °C 1033.1 hPa Calm     96% 0 mm
04:14 7.8 °C 7.2 °C 1033.1 hPa Calm     96% 0 mm
04:20 7.8 °C 7.2 °C 1033.1 hPa Calm     96% 0 mm
04:25 7.8 °C 7.2 °C 1033.1 hPa Calm     96% 0 mm
04:30 7.8 °C 7.2 °C 1033.1 hPa Calm     96% 0 mm
04:35 7.8 °C 7.2 °C 1033.1 hPa Calm     96% 0 mm
04:41 7.8 °C 7.2 °C 1033.1 hPa Calm     96% 0 mm
04:47 7.8 °C 7.2 °C 1033.1 hPa Calm     96% 0 mm
04:52 7.8 °C 7.2 °C 1033.1 hPa Calm     96% 0 mm
04:58 7.8 °C 7.2 °C 1033.1 hPa Calm     96% 0 mm
05:03 7.8 °C 7.2 °C 1033.4 hPa Calm     96% 0 mm
05:09 7.8 °C 7.2 °C 1033.4 hPa Calm     96% 0 mm
05:14 7.8 °C 7.2 °C 1033.1 hPa Calm     96% 0 mm
05:19 7.9 °C 7.3 °C 1033.1 hPa Calm     96% 0 mm
05:24 7.9 °C 7.3 °C 1033.1 hPa Calm     96% 0 mm
05:29 7.9 °C 7.3 °C 1033.1 hPa Calm     96% 0 mm
05:35 7.9 °C 7.3 °C 1032.7 hPa Calm     96% 0 mm
05:40 7.9 °C 7.3 °C 1033.1 hPa Calm     96% 0 mm
05:46 7.9 °C 7.3 °C 1033.4 hPa Calm     96% 0 mm
05:51 7.9 °C 7.3 °C 1033.4 hPa Calm     96% 0 mm
05:57 7.9 °C 7.3 °C 1033.4 hPa Calm     96% 0 mm
06:03 7.9 °C 7.3 °C 1033.4 hPa Calm     96% 0 mm
06:08 7.9 °C 7.3 °C 1033.4 hPa Calm     96% 0 mm
06:13 8 °C 7.4 °C 1033.4 hPa Calm     96% 0 mm
06:19 8 °C 7.4 °C 1033.7 hPa Calm     96% 0 mm
06:24 8 °C 7.4 °C 1033.7 hPa Calm     96% 0 mm
06:29 8 °C 7.4 °C 1033.7 hPa Calm     96% 0 mm
06:34 8.1 °C 7.5 °C 1033.7 hPa Calm     96% 0 mm
06:39 8.1 °C 7.5 °C 1033.7 hPa Calm     96% 0 mm
06:45 8.1 °C 7.5 °C 1033.7 hPa Calm     96% 0 mm
06:50 8.1 °C 7.5 °C 1033.7 hPa Calm     96% 0 mm
06:56 8.1 °C 7.5 °C 1033.7 hPa Calm     96% 0 mm
07:02 8.1 °C 7.5 °C 1033.7 hPa Calm     96% 0 mm
07:08 8.1 °C 7.5 °C 1033.7 hPa Calm     96% 0 mm
07:13 8.1 °C 7.5 °C 1033.7 hPa Calm     96% 0 mm
07:19 8.1 °C 7.5 °C 1033.7 hPa Calm     96% 0 mm
07:24 8.1 °C 7.5 °C 1033.7 hPa Calm     96% 0 mm
07:29 8.1 °C 7.5 °C 1033.7 hPa Calm     96% 0 mm
07:35 8.1 °C 7.5 °C 1033.7 hPa Calm     96% 0 mm
07:41 8.1 °C 7.5 °C 1034.1 hPa Calm     96% 0 mm
07:46 8.1 °C 7.5 °C 1033.7 hPa Calm     96% 0 mm
07:51 8.2 °C 7.6 °C 1033.7 hPa Calm     96% 0 mm
07:56 8.2 °C 7.6 °C 1034.1 hPa Calm     96% 0 mm
08:02 8.2 °C 7.6 °C 1034.1 hPa Calm     96% 0 mm
08:07 8.2 °C 7.6 °C 1033.7 hPa Calm     96% 0 mm
08:12 8.2 °C 7.6 °C 1033.7 hPa Calm     96% 0 mm
08:17 8.2 °C 7.6 °C 1033.7 hPa Calm     96% 0.25 mm
08:22 8.3 °C 7.7 °C 1033.7 hPa Calm     96% 0.25 mm
08:27 8.3 °C 7.7 °C 1033.4 hPa Calm     96% 0.25 mm
08:32 8.4 °C 8 °C 1033.7 hPa Calm     97% 0.25 mm
08:38 8.4 °C 8 °C 1033.7 hPa Calm     97% 0.25 mm
08:43 8.6 °C 8.2 °C 1033.7 hPa Calm     97% 0.25 mm
08:48 8.6 °C 8.2 °C 1033.7 hPa Calm     97% 0.25 mm
08:54 8.7 °C 8.3 °C 1033.7 hPa Calm     97% 0.25 mm
08:59 8.7 °C 8.3 °C 1033.7 hPa Calm     97% 0.25 mm
09:05 8.8 °C 8.3 °C 1033.7 hPa Calm     97% 0.25 mm
09:10 8.8 °C 8.3 °C 1033.7 hPa Calm     97% 0.51 mm
09:15 8.9 °C 8.4 °C 1033.7 hPa Calm     97% 0.25 mm
09:20 8.9 °C 8.4 °C 1034.1 hPa Calm     97% 0.25 mm
09:25 8.9 °C 8.4 °C 1034.1 hPa Calm     97% 0.25 mm
09:30 9 °C 8.5 °C 1034.1 hPa Calm     97% 0.25 mm
09:36 9 °C 8.5 °C 1033.7 hPa Calm     97% 0.25 mm
09:41 9.1 °C 8.6 °C 1033.7 hPa Calm     97% 0.51 mm
09:47 9.1 °C 8.6 °C 1033.7 hPa Calm     97% 0.51 mm
09:52 9.2 °C 8.7 °C 1033.7 hPa Calm     97% 0.51 mm
09:58 9.2 °C 8.7 °C 1033.7 hPa Calm     97% 0.51 mm
10:04 9.3 °C 8.8 °C 1033.4 hPa Calm     97% 0.76 mm
10:09 9.3 °C 8.8 °C 1033.7 hPa Calm     97% 0.76 mm
10:15 9.4 °C 8.9 °C 1033.7 hPa Calm     97% 0.76 mm
10:20 9.5 °C 9 °C 1033.7 hPa Calm     97% 0.76 mm
10:26 9.6 °C 9.1 °C 1033.1 hPa Calm     97% 1.02 mm
10:31 9.7 °C 9.2 °C 1033.1 hPa Calm     97% 1.02 mm
10:37 9.7 °C 9.2 °C 1032.7 hPa Calm     97% 1.02 mm
10:43 9.8 °C 9.3 °C 1033.4 hPa Calm     97% 0.76 mm
10:48 9.9 °C 9.4 °C 1033.4 hPa Calm     97% 1.02 mm
10:53 10 °C 9.5 °C 1033.4 hPa Calm     97% 1.02 mm
10:59 10.1 °C 9.6 °C 1033.4 hPa Calm     97% 0.76 mm
11:04 10.2 °C 9.7 °C 1033.4 hPa Calm     97% 0.76 mm
11:09 10.2 °C 9.7 °C 1033.4 hPa Calm     97% 0.51 mm
11:14 10.3 °C 9.8 °C 1033.4 hPa Calm     97% 0.51 mm
11:20 10.4 °C 9.9 °C 1033.1 hPa Calm     97% 0.51 mm
11:26 10.5 °C 10 °C 1033.1 hPa Calm     97% 0.51 mm
11:31 10.6 °C 10.1 °C 1033.1 hPa Calm     97% 0.51 mm
11:36 10.7 °C 10.2 °C 1033.1 hPa Calm     97% 0.51 mm
11:41 10.7 °C 10.2 °C 1033.1 hPa Calm     97% 0.51 mm
11:47 10.8 °C 10.3 °C 1033.1 hPa Calm     97% 0.25 mm
11:52 10.8 °C 10.3 °C 1032.7 hPa Calm     97% 0.25 mm
11:57 10.8 °C 10.3 °C 1033.1 hPa Calm     97% 0.25 mm
12:02 10.9 °C 10.4 °C 1032.7 hPa Calm     97% 0.25 mm
12:08 11.2 °C 10.7 °C 1032.7 hPa Calm     97% 0.25 mm
12:13 11.3 °C 10.8 °C 1032.4 hPa Calm     97% 0.25 mm
12:19 11.4 °C 10.9 °C 1032.4 hPa Calm     97% 0.25 mm
12:24 11.6 °C 11.3 °C 1032.4 hPa Calm     98% 0.25 mm
12:29 11.7 °C 11.2 °C 1032.4 hPa Calm     97% 0 mm
12:35 11.9 °C 11.6 °C 1032.1 hPa Calm     98% 0 mm
12:40 12 °C 11.7 °C 1031.7 hPa Calm     98% 0 mm
12:46 12.2 °C 11.7 °C 1031.7 hPa Calm     97% 0 mm
12:51 12.4 °C 11.9 °C 1031.7 hPa Calm     97% 0 mm
12:56 12.8 °C 12.3 °C 1031.4 hPa Calm     97% 0 mm
13:02 13.1 °C 12.8 °C 1031 hPa Calm     98% 0 mm
13:07 13.3 °C 13 °C 1031 hPa Calm     98% 0 mm
13:12 13.4 °C 13.1 °C 1031 hPa Calm     98% 0 mm
13:17 13.5 °C 13 °C 1030.7 hPa Calm     97% 0 mm
13:23 13.7 °C 13.4 °C 1030.7 hPa Calm     98% 0 mm
13:28 13.9 °C 13.6 °C 1030.4 hPa Calm     98% 0 mm
13:33 14.1 °C 13.8 °C 1030.7 hPa Calm     98% 0 mm
13:38 14.2 °C 13.9 °C 1030.4 hPa Calm     98% 0 mm
13:44 14.3 °C 14 °C 1030.4 hPa Calm     98% 0 mm
13:49 14.4 °C 14.1 °C 1030.4 hPa Calm     98% 0 mm
13:54 14.3 °C 13.8 °C 1030 hPa Calm     97% 0 mm
14:00 14.3 °C 13.8 °C 1030 hPa Calm     97% 0 mm
14:05 14.3 °C 13.8 °C 1030 hPa Calm     97% 0 mm
14:10 14.4 °C 13.8 °C 1030 hPa Calm     96% 0 mm
14:16 14.5 °C 13.9 °C 1030 hPa Calm     96% 0 mm
14:21 14.6 °C 13.8 °C 1030 hPa Calm     95% 0 mm
14:26 14.7 °C 13.9 °C 1029.7 hPa Calm     95% 0 mm
14:31 14.8 °C 13.8 °C 1029.7 hPa Calm     94% 0 mm
14:37 14.9 °C 13.8 °C 1029.3 hPa Calm     93% 0 mm
14:42 15.1 °C 14 °C 1029.7 hPa Calm     93% 0 mm
14:48 15.1 °C 13.8 °C 1029.3 hPa Calm     92% 0 mm
14:53 15.2 °C 13.7 °C 1029.3 hPa Calm     91% 0 mm
14:58 15.3 °C 14 °C 1029.3 hPa Calm     92% 0 mm
15:04 15.5 °C 14 °C 1029.3 hPa Calm     91% 0 mm
15:09 15.6 °C 14 °C 1029.3 hPa Calm     90% 0 mm
15:14 15.5 °C 13.7 °C 1029.3 hPa Calm     89% 0 mm
15:19 15.4 °C 13.6 °C 1029.3 hPa Calm     89% 0 mm
15:25 15.5 °C 13.7 °C 1029 hPa Calm     89% 0 mm
15:30 15.6 °C 13.6 °C 1029 hPa Calm     88% 0 mm
15:36 15.7 °C 13.9 °C 1028.7 hPa Calm     89% 0 mm
15:41 15.8 °C 14 °C 1028.7 hPa Calm     89% 0 mm
15:46 16 °C 14 °C 1028.7 hPa Calm     88% 0 mm
15:51 16.1 °C 13.9 °C 1028.3 hPa Calm     87% 0 mm
15:58 16.1 °C 13.8 °C 1028.3 hPa Calm     86% 0 mm
16:03 16 °C 13.7 °C 1028.3 hPa Calm     86% 0 mm
16:08 15.9 °C 13.7 °C 1028.3 hPa Calm     87% 0 mm
16:13 15.9 °C 13.7 °C 1028.3 hPa Calm     87% 0 mm
16:19 15.9 °C 13.7 °C 1028.3 hPa Calm     87% 0 mm
16:24 16 °C 13.8 °C 1028.3 hPa Calm     87% 0 mm
16:29 16.1 °C 14.1 °C 1028.3 hPa Calm     88% 0 mm
16:34 16.1 °C 13.9 °C 1028.3 hPa Calm     87% 0 mm
16:39 16.1 °C 13.8 °C 1028.3 hPa Calm     86% 0 mm
16:44 16.1 °C 13.9 °C 1028 hPa Calm     87% 0 mm
16:49 16.1 °C 14.1 °C 1028.3 hPa Calm     88% 0 mm
16:55 16.1 °C 14.1 °C 1028 hPa Calm     88% 0 mm
17:00 16 °C 14 °C 1028 hPa Calm     88% 0 mm
17:05 15.9 °C 13.9 °C 1028.3 hPa Calm     88% 0 mm
17:10 15.9 °C 13.9 °C 1028 hPa Calm     88% 0 mm
17:15 15.8 °C 13.8 °C 1028 hPa Calm     88% 0 mm
17:21 15.8 °C 13.8 °C 1028.3 hPa Calm     88% 0 mm
17:26 15.8 °C 14 °C 1028 hPa Calm     89% 0 mm
17:31 15.7 °C 13.9 °C 1028.3 hPa Calm     89% 0 mm
17:37 15.7 °C 13.9 °C 1028.3 hPa Calm     89% 0 mm
17:43 15.6 °C 13.8 °C 1028.3 hPa Calm     89% 0 mm
17:48 15.6 °C 13.8 °C 1028 hPa Calm     89% 0 mm
17:53 15.5 °C 13.7 °C 1028 hPa Calm     89% 0 mm
17:59 15.4 °C 13.6 °C 1028 hPa Calm     89% 0 mm
18:05 15.4 °C 13.8 °C 1027.7 hPa Calm     90% 0 mm
18:10 15.4 °C 13.8 °C 1028 hPa Calm     90% 0 mm
18:15 15.3 °C 13.7 °C 1028 hPa Calm     90% 0 mm
18:20 15.3 °C 13.7 °C 1027.7 hPa Calm     90% 0 mm
18:26 15.2 °C 13.6 °C 1027.7 hPa Calm     90% 0 mm
18:31 15.2 °C 13.7 °C 1027.7 hPa Calm     91% 0 mm
18:37 15.1 °C 13.6 °C 1027.7 hPa Calm     91% 0 mm
18:48 14.9 °C 13.6 °C 1027.7 hPa Calm     92% 0 mm
18:53 14.9 °C 13.6 °C 1027.7 hPa Calm     92% 0 mm
18:58 14.8 °C 13.5 °C 1027.7 hPa Calm     92% 0 mm
19:04 14.8 °C 13.5 °C 1027.7 hPa Calm     92% 0 mm
19:09 14.7 °C 13.4 °C 1027.7 hPa Calm     92% 0 mm
19:14 14.7 °C 13.6 °C 1027.7 hPa Calm     93% 0 mm
19:19 14.7 °C 13.4 °C 1027.7 hPa Calm     92% 0 mm
19:24 14.7 °C 13.4 °C 1027.7 hPa Calm     92% 0 mm
19:29 14.7 °C 13.6 °C 1027.7 hPa Calm     93% 0 mm
19:34 14.7 °C 13.6 °C 1027.7 hPa Calm     93% 0 mm
19:40 14.6 °C 13.5 °C 1027.7 hPa Calm     93% 0 mm
19:45 14.6 °C 13.5 °C 1027.7 hPa Calm     93% 0 mm
19:51 14.5 °C 13.5 °C 1027.7 hPa Calm     94% 0 mm
19:56 14.5 °C 13.5 °C 1027.7 hPa Calm     94% 0 mm
20:01 14.5 °C 13.5 °C 1027.7 hPa Calm     94% 0 mm
20:07 14.4 °C 13.4 °C 1027.7 hPa Calm     94% 0 mm
20:12 14.4 °C 13.4 °C 1027.7 hPa Calm     94% 0 mm
20:18 14.4 °C 13.4 °C 1027.7 hPa Calm     94% 0 mm
20:23 14.3 °C 13.3 °C 1027.7 hPa Calm     94% 0 mm
20:29 14.3 °C 13.5 °C 1027.7 hPa Calm     95% 0 mm
20:34 14.3 °C 13.5 °C 1028 hPa Calm     95% 0 mm
20:39 14.3 °C 13.5 °C 1027.7 hPa Calm     95% 0 mm
20:44 14.3 °C 13.5 °C 1028 hPa Calm     95% 0 mm
20:49 14.3 °C 13.5 °C 1028 hPa Calm     95% 0 mm
20:54 14.3 °C 13.5 °C 1028 hPa Calm     95% 0.25 mm
20:59 14.2 °C 13.4 °C 1028 hPa Calm     95% 0.25 mm
21:04 14.2 °C 13.4 °C 1027.7 hPa Calm     95% 0.25 mm
21:10 14.2 °C 13.4 °C 1027.7 hPa Calm     95% 0.25 mm
21:15 14.1 °C 13.5 °C 1027.7 hPa Calm     96% 0.25 mm
21:20 14.1 °C 13.5 °C 1027.7 hPa Calm     96% 0.25 mm
21:26 14.1 °C 13.5 °C 1028 hPa Calm     96% 0.25 mm
21:31 14 °C 13.4 °C 1027.7 hPa Calm     96% 0.25 mm
21:36 14 °C 13.4 °C 1027.7 hPa Calm     96% 0.25 mm
21:41 14 °C 13.4 °C 1027.7 hPa Calm     96% 0.25 mm
21:47 14 °C 13.4 °C 1027.7 hPa Calm     96% 0.25 mm
21:52 13.9 °C 13.3 °C 1027.7 hPa Calm     96% 0 mm
21:57 14 °C 13.4 °C 1027.7 hPa Calm     96% 0 mm
22:02 14 °C 13.4 °C 1027.3 hPa Calm     96% 0 mm
22:07 14 °C 13.4 °C 1027.3 hPa Calm     96% 0 mm
22:13 14 °C 13.4 °C 1027.3 hPa Calm     96% 0 mm
22:18 14 °C 13.4 °C 1027.3 hPa Calm     96% 0 mm
22:24 14 °C 13.4 °C 1027.3 hPa Calm     96% 0 mm
22:29 14 °C 13.4 °C 1027.3 hPa Calm     96% 0 mm
22:35 14 °C 13.4 °C 1027.3 hPa Calm     96% 0 mm
22:40 14 °C 13.4 °C 1027.3 hPa Calm     96% 0 mm
22:46 13.9 °C 13.3 °C 1027.3 hPa Calm     96% 0 mm
22:51 13.9 °C 13.3 °C 1027.3 hPa Calm     96% 0 mm
22:56 13.9 °C 13.3 °C 1027.3 hPa Calm     96% 0 mm
23:01 13.9 °C 13.3 °C 1027.3 hPa Calm     96% 0 mm
23:06 13.9 °C 13.3 °C 1027.3 hPa Calm     96% 0 mm
23:11 13.9 °C 13.3 °C 1027.3 hPa Calm     96% 0 mm
23:16 13.9 °C 13.3 °C 1027.3 hPa Calm     96% 0 mm
23:21 13.9 °C 13.3 °C 1027.3 hPa Calm     96% 0 mm
23:27 13.9 °C 13.3 °C 1027.3 hPa Calm     96% 0 mm
23:33 13.9 °C 13.3 °C 1027.3 hPa Calm     96% 0.25 mm
23:39 13.9 °C 13.3 °C 1027 hPa Calm     96% 0.25 mm
23:44 13.9 °C 13.4 °C 1027 hPa Calm     97% 0.25 mm
23:49 13.9 °C 13.3 °C 1027.3 hPa Calm     96% 0.51 mm
23:55 13.9 °C 13.4 °C 1027 hPa Calm     97% 0.51 mm
Ellijay Weather
Compliments of Weather Underground - 2.5 mb